Terminal Aerodrome Forecast
Issued by NWS

Current Version | Previous Version | Graphics & Text | Print | Product List | Glossary Off
Versions: 1 2 3 4 5 6 7 8 9 10 11 12 13 14 15 16 17 18 19

000
FTUS42 KILM 261722
TAFCRE
TAF
KCRE 261722Z 2618/2718 12011G17KT P6SM FEW030 SCT220
     FM270000 08004KT P6SM SCT020 BKN120
     FM271000 03003KT 3SM BR SCT020
     FM271400 02005KT P6SM VCSH SCT030 OVC100=

USA.gov is the U.S. government's official web portal to all federal, state and local government web resources and services.